sensor_id;sensor_type;location;lat;lon;timestamp;P1;durP1;ratioP1;P2;durP2;ratioP2
6928;SDS011;3504;52.616;13.238;2023-07-20T00:02:26;6.22;;;5.55;;
6928;SDS011;3504;52.616;13.238;2023-07-20T00:07:26;6.63;;;5.40;;
6928;SDS011;3504;52.616;13.238;2023-07-20T00:12:27;5.18;;;4.60;;
6928;SDS011;3504;52.616;13.238;2023-07-20T00:17:27;6.00;;;5.40;;
6928;SDS011;3504;52.616;13.238;2023-07-20T00:22:28;5.13;;;4.63;;
6928;SDS011;3504;52.616;13.238;2023-07-20T00:27:28;5.13;;;4.53;;
6928;SDS011;3504;52.616;13.238;2023-07-20T00:32:29;5.73;;;5.13;;
6928;SDS011;3504;52.616;13.238;2023-07-20T00:37:31;5.80;;;5.20;;
6928;SDS011;3504;52.616;13.238;2023-07-20T00:42:33;5.60;;;5.10;;
6928;SDS011;3504;52.616;13.238;2023-07-20T00:47:34;6.43;;;5.55;;
6928;SDS011;3504;52.616;13.238;2023-07-20T00:52:35;9.10;;;6.63;;
6928;SDS011;3504;52.616;13.238;2023-07-20T00:57:39;6.90;;;6.30;;
6928;SDS011;3504;52.616;13.238;2023-07-20T01:02:40;6.73;;;6.13;;
6928;SDS011;3504;52.616;13.238;2023-07-20T01:07:55;6.13;;;5.63;;
6928;SDS011;3504;52.616;13.238;2023-07-20T01:13:19;8.47;;;6.67;;
6928;SDS011;3504;52.616;13.238;2023-07-20T01:18:21;8.03;;;6.70;;
6928;SDS011;3504;52.616;13.238;2023-07-20T01:23:28;7.57;;;6.83;;
6928;SDS011;3504;52.616;13.238;2023-07-20T01:29:06;8.63;;;7.17;;
6928;SDS011;3504;52.616;13.238;2023-07-20T01:34:25;8.63;;;7.57;;
6928;SDS011;3504;52.616;13.238;2023-07-20T01:39:26;9.97;;;8.23;;
6928;SDS011;3504;52.616;13.238;2023-07-20T01:44:28;9.60;;;8.43;;
6928;SDS011;3504;52.616;13.238;2023-07-20T01:49:29;9.55;;;8.48;;
6928;SDS011;3504;52.616;13.238;2023-07-20T01:54:30;9.03;;;8.13;;
6928;SDS011;3504;52.616;13.238;2023-07-20T01:59:30;9.13;;;8.13;;
6928;SDS011;3504;52.616;13.238;2023-07-20T02:04:31;9.88;;;8.88;;
6928;SDS011;3504;52.616;13.238;2023-07-20T02:09:32;9.45;;;8.65;;
6928;SDS011;3504;52.616;13.238;2023-07-20T02:14:32;10.85;;;9.75;;
6928;SDS011;3504;52.616;13.238;2023-07-20T02:19:33;12.03;;;10.30;;
6928;SDS011;3504;52.616;13.238;2023-07-20T02:24:34;11.95;;;10.75;;
6928;SDS011;3504;52.616;13.238;2023-07-20T02:29:34;12.50;;;9.87;;
6928;SDS011;3504;52.616;13.238;2023-07-20T02:34:36;13.07;;;10.73;;
6928;SDS011;3504;52.616;13.238;2023-07-20T02:39:36;13.83;;;11.27;;
6928;SDS011;3504;52.616;13.238;2023-07-20T02:44:37;12.65;;;9.95;;
6928;SDS011;3504;52.616;13.238;2023-07-20T02:49:37;13.67;;;11.80;;
6928;SDS011;3504;52.616;13.238;2023-07-20T02:54:38;16.50;;;12.57;;
6928;SDS011;3504;52.616;13.238;2023-07-20T02:59:38;15.47;;;12.37;;
6928;SDS011;3504;52.616;13.238;2023-07-20T03:04:39;16.93;;;12.83;;
6928;SDS011;3504;52.616;13.238;2023-07-20T03:09:40;16.30;;;12.63;;
6928;SDS011;3504;52.616;13.238;2023-07-20T03:14:40;14.93;;;12.23;;
6928;SDS011;3504;52.616;13.238;2023-07-20T03:19:42;14.20;;;11.70;;
6928;SDS011;3504;52.616;13.238;2023-07-20T03:24:43;12.17;;;10.77;;
6928;SDS011;3504;52.616;13.238;2023-07-20T03:29:44;14.70;;;11.90;;
6928;SDS011;3504;52.616;13.238;2023-07-20T03:34:45;12.83;;;11.03;;
6928;SDS011;3504;52.616;13.238;2023-07-20T03:39:48;14.00;;;11.07;;
6928;SDS011;3504;52.616;13.238;2023-07-20T03:44:48;13.43;;;11.30;;
6928;SDS011;3504;52.616;13.238;2023-07-20T03:49:50;12.57;;;10.83;;
6928;SDS011;3504;52.616;13.238;2023-07-20T03:54:51;12.77;;;11.47;;
6928;SDS011;3504;52.616;13.238;2023-07-20T03:59:54;13.40;;;10.63;;
6928;SDS011;3504;52.616;13.238;2023-07-20T04:04:56;12.47;;;11.27;;
6928;SDS011;3504;52.616;13.238;2023-07-20T04:09:57;12.77;;;11.40;;
6928;SDS011;3504;52.616;13.238;2023-07-20T04:14:57;13.43;;;11.87;;
6928;SDS011;3504;52.616;13.238;2023-07-20T04:19:58;14.63;;;11.97;;
6928;SDS011;3504;52.616;13.238;2023-07-20T04:24:58;14.60;;;12.93;;
6928;SDS011;3504;52.616;13.238;2023-07-20T04:29:59;13.10;;;11.63;;
6928;SDS011;3504;52.616;13.238;2023-07-20T04:35:00;13.30;;;11.93;;
6928;SDS011;3504;52.616;13.238;2023-07-20T04:40:01;13.53;;;11.20;;
6928;SDS011;3504;52.616;13.238;2023-07-20T04:45:03;12.93;;;11.73;;
6928;SDS011;3504;52.616;13.238;2023-07-20T04:50:05;15.73;;;12.07;;
6928;SDS011;3504;52.616;13.238;2023-07-20T04:55:06;12.90;;;11.53;;
6928;SDS011;3504;52.616;13.238;2023-07-20T05:00:07;13.17;;;11.73;;
6928;SDS011;3504;52.616;13.238;2023-07-20T05:05:10;12.37;;;11.27;;
6928;SDS011;3504;52.616;13.238;2023-07-20T05:10:11;13.63;;;11.27;;
6928;SDS011;3504;52.616;13.238;2023-07-20T05:15:12;11.27;;;10.23;;
6928;SDS011;3504;52.616;13.238;2023-07-20T05:20:14;11.18;;;10.13;;
6928;SDS011;3504;52.616;13.238;2023-07-20T05:25:18;14.33;;;10.73;;
6928;SDS011;3504;52.616;13.238;2023-07-20T05:30:18;11.57;;;10.47;;
6928;SDS011;3504;52.616;13.238;2023-07-20T05:35:19;10.53;;;9.43;;
6928;SDS011;3504;52.616;13.238;2023-07-20T05:40:20;11.60;;;10.00;;
6928;SDS011;3504;52.616;13.238;2023-07-20T05:45:21;10.27;;;9.20;;
6928;SDS011;3504;52.616;13.238;2023-07-20T05:50:21;12.00;;;8.97;;
6928;SDS011;3504;52.616;13.238;2023-07-20T05:55:22;9.80;;;8.80;;
6928;SDS011;3504;52.616;13.238;2023-07-20T06:00:22;9.30;;;8.35;;
6928;SDS011;3504;52.616;13.238;2023-07-20T06:05:26;8.27;;;7.45;;
6928;SDS011;3504;52.616;13.238;2023-07-20T06:10:26;7.55;;;6.80;;
6928;SDS011;3504;52.616;13.238;2023-07-20T06:15:36;6.63;;;5.45;;
6928;SDS011;3504;52.616;13.238;2023-07-20T06:20:39;6.60;;;5.80;;
6928;SDS011;3504;52.616;13.238;2023-07-20T06:25:39;6.45;;;5.80;;
6928;SDS011;3504;52.616;13.238;2023-07-20T06:30:40;7.80;;;5.32;;
6928;SDS011;3504;52.616;13.238;2023-07-20T06:35:41;5.03;;;4.53;;
6928;SDS011;3504;52.616;13.238;2023-07-20T06:40:43;4.05;;;3.65;;
6928;SDS011;3504;52.616;13.238;2023-07-20T06:45:43;6.20;;;4.22;;
6928;SDS011;3504;52.616;13.238;2023-07-20T06:50:44;4.78;;;3.42;;
6928;SDS011;3504;52.616;13.238;2023-07-20T06:55:44;6.97;;;3.05;;
6928;SDS011;3504;52.616;13.238;2023-07-20T07:00:45;5.43;;;2.75;;
6928;SDS011;3504;52.616;13.238;2023-07-20T07:05:45;3.35;;;2.42;;
6928;SDS011;3504;52.616;13.238;2023-07-20T07:10:46;2.58;;;2.38;;
6928;SDS011;3504;52.616;13.238;2023-07-20T07:15:46;4.53;;;2.20;;
6928;SDS011;3504;52.616;13.238;2023-07-20T07:20:50;5.85;;;2.03;;
6928;SDS011;3504;52.616;13.238;2023-07-20T07:25:52;2.20;;;1.92;;
6928;SDS011;3504;52.616;13.238;2023-07-20T07:30:54;3.25;;;1.85;;
6928;SDS011;3504;52.616;13.238;2023-07-20T07:35:55;1.60;;;1.50;;
6928;SDS011;3504;52.616;13.238;2023-07-20T07:40:55;1.50;;;1.40;;
6928;SDS011;3504;52.616;13.238;2023-07-20T07:45:56;2.33;;;1.50;;
6928;SDS011;3504;52.616;13.238;2023-07-20T07:50:57;1.30;;;1.20;;
6928;SDS011;3504;52.616;13.238;2023-07-20T07:55:58;1.13;;;1.00;;
6928;SDS011;3504;52.616;13.238;2023-07-20T08:00:58;1.63;;;1.20;;
6928;SDS011;3504;52.616;13.238;2023-07-20T08:05:59;1.13;;;1.02;;
6928;SDS011;3504;52.616;13.238;2023-07-20T08:11:00;1.13;;;1.02;;
6928;SDS011;3504;52.616;13.238;2023-07-20T08:16:00;1.30;;;1.00;;
6928;SDS011;3504;52.616;13.238;2023-07-20T08:21:04;2.72;;;0.98;;
6928;SDS011;3504;52.616;13.238;2023-07-20T08:26:04;0.98;;;0.90;;
6928;SDS011;3504;52.616;13.238;2023-07-20T08:31:05;2.47;;;0.85;;
6928;SDS011;3504;52.616;13.238;2023-07-20T08:36:07;1.50;;;0.85;;
6928;SDS011;3504;52.616;13.238;2023-07-20T08:41:08;0.90;;;0.90;;
6928;SDS011;3504;52.616;13.238;2023-07-20T08:46:10;1.63;;;1.00;;
6928;SDS011;3504;52.616;13.238;2023-07-20T08:51:12;0.93;;;0.80;;
6928;SDS011;3504;52.616;13.238;2023-07-20T08:56:13;3.85;;;0.93;;
6928;SDS011;3504;52.616;13.238;2023-07-20T09:01:16;2.53;;;1.10;;
6928;SDS011;3504;52.616;13.238;2023-07-20T09:06:18;0.95;;;0.80;;
6928;SDS011;3504;52.616;13.238;2023-07-20T09:11:19;3.35;;;0.80;;
6928;SDS011;3504;52.616;13.238;2023-07-20T09:16:20;1.40;;;0.98;;
6928;SDS011;3504;52.616;13.238;2023-07-20T09:21:20;1.02;;;0.93;;
6928;SDS011;3504;52.616;13.238;2023-07-20T09:26:21;3.90;;;1.05;;
6928;SDS011;3504;52.616;13.238;2023-07-20T09:31:22;2.75;;;1.08;;
6928;SDS011;3504;52.616;13.238;2023-07-20T09:36:23;1.23;;;1.02;;
6928;SDS011;3504;52.616;13.238;2023-07-20T09:41:23;1.70;;;0.88;;
6928;SDS011;3504;52.616;13.238;2023-07-20T09:46:25;2.45;;;1.13;;
6928;SDS011;3504;52.616;13.238;2023-07-20T09:51:42;2.50;;;1.35;;
6928;SDS011;3504;52.616;13.238;2023-07-20T09:56:44;1.35;;;1.10;;
6928;SDS011;3504;52.616;13.238;2023-07-20T10:01:46;1.10;;;0.80;;
6928;SDS011;3504;52.616;13.238;2023-07-20T10:06:49;2.47;;;0.80;;
6928;SDS011;3504;52.616;13.238;2023-07-20T10:11:52;0.80;;;0.80;;
6928;SDS011;3504;52.616;13.238;2023-07-20T10:16:54;0.70;;;0.70;;
6928;SDS011;3504;52.616;13.238;2023-07-20T10:22:00;1.38;;;0.75;;
6928;SDS011;3504;52.616;13.238;2023-07-20T10:27:14;0.60;;;0.60;;
6928;SDS011;3504;52.616;13.238;2023-07-20T10:32:17;1.40;;;0.75;;
6928;SDS011;3504;52.616;13.238;2023-07-20T10:42:56;0.77;;;0.77;;
6928;SDS011;3504;52.616;13.238;2023-07-20T10:48:18;0.77;;;0.60;;
6928;SDS011;3504;52.616;13.238;2023-07-20T10:53:20;0.80;;;0.63;;
6928;SDS011;3504;52.616;13.238;2023-07-20T10:58:21;0.95;;;0.70;;
6928;SDS011;3504;52.616;13.238;2023-07-20T11:03:30;1.60;;;0.63;;
6928;SDS011;3504;52.616;13.238;2023-07-20T11:08:42;1.45;;;0.95;;
6928;SDS011;3504;52.616;13.238;2023-07-20T11:13:53;1.40;;;0.70;;
6928;SDS011;3504;52.616;13.238;2023-07-20T11:19:02;1.75;;;0.60;;
6928;SDS011;3504;52.616;13.238;2023-07-20T11:24:05;0.77;;;0.63;;
6928;SDS011;3504;52.616;13.238;2023-07-20T11:29:07;1.27;;;0.77;;
6928;SDS011;3504;52.616;13.238;2023-07-20T11:34:10;1.38;;;0.90;;
6928;SDS011;3504;52.616;13.238;2023-07-20T11:39:21;1.75;;;0.88;;
6928;SDS011;3504;52.616;13.238;2023-07-20T11:44:25;0.75;;;0.75;;
6928;SDS011;3504;52.616;13.238;2023-07-20T11:49:27;1.40;;;1.05;;
6928;SDS011;3504;52.616;13.238;2023-07-20T11:54:27;1.10;;;0.90;;
6928;SDS011;3504;52.616;13.238;2023-07-20T11:59:28;1.42;;;0.70;;
6928;SDS011;3504;52.616;13.238;2023-07-20T12:04:30;4.20;;;1.00;;
6928;SDS011;3504;52.616;13.238;2023-07-20T12:09:32;2.30;;;1.17;;
6928;SDS011;3504;52.616;13.238;2023-07-20T12:14:33;4.78;;;1.45;;
6928;SDS011;3504;52.616;13.238;2023-07-20T12:19:37;2.67;;;1.27;;
6928;SDS011;3504;52.616;13.238;2023-07-20T12:24:39;1.98;;;0.90;;
6928;SDS011;3504;52.616;13.238;2023-07-20T12:29:39;1.08;;;0.98;;
6928;SDS011;3504;52.616;13.238;2023-07-20T12:34:40;0.88;;;0.70;;
6928;SDS011;3504;52.616;13.238;2023-07-20T12:39:41;0.82;;;0.50;;
6928;SDS011;3504;52.616;13.238;2023-07-20T12:44:44;0.98;;;0.70;;
6928;SDS011;3504;52.616;13.238;2023-07-20T12:49:44;2.33;;;0.77;;
6928;SDS011;3504;52.616;13.238;2023-07-20T12:54:46;1.08;;;0.80;;
6928;SDS011;3504;52.616;13.238;2023-07-20T12:59:47;0.80;;;0.70;;
6928;SDS011;3504;52.616;13.238;2023-07-20T13:04:47;0.93;;;0.80;;
6928;SDS011;3504;52.616;13.238;2023-07-20T13:09:48;0.80;;;0.60;;
6928;SDS011;3504;52.616;13.238;2023-07-20T13:14:48;1.80;;;0.70;;
6928;SDS011;3504;52.616;13.238;2023-07-20T13:19:49;0.55;;;0.50;;
6928;SDS011;3504;52.616;13.238;2023-07-20T13:24:49;3.13;;;0.80;;
6928;SDS011;3504;52.616;13.238;2023-07-20T13:29:50;0.80;;;0.80;;
6928;SDS011;3504;52.616;13.238;2023-07-20T13:34:51;1.40;;;0.70;;
6928;SDS011;3504;52.616;13.238;2023-07-20T13:39:51;1.85;;;0.60;;
6928;SDS011;3504;52.616;13.238;2023-07-20T13:44:52;0.82;;;0.75;;
6928;SDS011;3504;52.616;13.238;2023-07-20T13:49:52;0.95;;;0.70;;
6928;SDS011;3504;52.616;13.238;2023-07-20T13:54:53;1.75;;;0.60;;
6928;SDS011;3504;52.616;13.238;2023-07-20T13:59:53;1.63;;;0.80;;
6928;SDS011;3504;52.616;13.238;2023-07-20T14:04:54;0.93;;;0.80;;
6928;SDS011;3504;52.616;13.238;2023-07-20T14:09:55;1.42;;;0.60;;
6928;SDS011;3504;52.616;13.238;2023-07-20T14:14:56;1.17;;;0.80;;
6928;SDS011;3504;52.616;13.238;2023-07-20T14:19:57;2.30;;;0.90;;
6928;SDS011;3504;52.616;13.238;2023-07-20T14:24:57;1.38;;;0.80;;
6928;SDS011;3504;52.616;13.238;2023-07-20T14:29:59;1.33;;;0.75;;
6928;SDS011;3504;52.616;13.238;2023-07-20T14:34:59;0.85;;;0.80;;
6928;SDS011;3504;52.616;13.238;2023-07-20T14:40:00;1.08;;;0.80;;
6928;SDS011;3504;52.616;13.238;2023-07-20T14:45:01;2.15;;;0.90;;
6928;SDS011;3504;52.616;13.238;2023-07-20T14:50:02;2.13;;;0.80;;
6928;SDS011;3504;52.616;13.238;2023-07-20T14:55:03;2.22;;;0.90;;
6928;SDS011;3504;52.616;13.238;2023-07-20T15:00:04;1.25;;;0.73;;
6928;SDS011;3504;52.616;13.238;2023-07-20T15:05:10;1.13;;;0.90;;
6928;SDS011;3504;52.616;13.238;2023-07-20T15:10:11;1.30;;;0.80;;
6928;SDS011;3504;52.616;13.238;2023-07-20T15:15:12;0.95;;;0.77;;
6928;SDS011;3504;52.616;13.238;2023-07-20T15:20:14;1.08;;;0.90;;
6928;SDS011;3504;52.616;13.238;2023-07-20T15:25:14;3.28;;;1.00;;
6928;SDS011;3504;52.616;13.238;2023-07-20T15:30:15;1.00;;;0.90;;
6928;SDS011;3504;52.616;13.238;2023-07-20T15:35:16;1.83;;;1.10;;
6928;SDS011;3504;52.616;13.238;2023-07-20T15:40:17;4.13;;;1.13;;
6928;SDS011;3504;52.616;13.238;2023-07-20T15:45:18;2.58;;;1.20;;
6928;SDS011;3504;52.616;13.238;2023-07-20T15:50:18;2.03;;;1.10;;
6928;SDS011;3504;52.616;13.238;2023-07-20T15:55:19;1.95;;;1.30;;
6928;SDS011;3504;52.616;13.238;2023-07-20T16:00:19;1.10;;;1.10;;
6928;SDS011;3504;52.616;13.238;2023-07-20T16:05:20;1.73;;;1.10;;
6928;SDS011;3504;52.616;13.238;2023-07-20T16:10:20;1.30;;;1.20;;
6928;SDS011;3504;52.616;13.238;2023-07-20T16:15:21;2.05;;;1.17;;
6928;SDS011;3504;52.616;13.238;2023-07-20T16:20:23;3.08;;;1.73;;
6928;SDS011;3504;52.616;13.238;2023-07-20T16:25:23;3.35;;;1.25;;
6928;SDS011;3504;52.616;13.238;2023-07-20T16:30:24;3.65;;;1.23;;
6928;SDS011;3504;52.616;13.238;2023-07-20T16:35:24;1.92;;;1.10;;
6928;SDS011;3504;52.616;13.238;2023-07-20T16:40:25;2.05;;;0.90;;
6928;SDS011;3504;52.616;13.238;2023-07-20T16:45:25;3.85;;;1.40;;
6928;SDS011;3504;52.616;13.238;2023-07-20T16:50:26;1.00;;;0.80;;
6928;SDS011;3504;52.616;13.238;2023-07-20T16:55:29;5.03;;;1.33;;
6928;SDS011;3504;52.616;13.238;2023-07-20T17:00:29;3.60;;;1.33;;
6928;SDS011;3504;52.616;13.238;2023-07-20T17:05:30;1.73;;;1.00;;
6928;SDS011;3504;52.616;13.238;2023-07-20T17:10:31;3.83;;;1.02;;
6928;SDS011;3504;52.616;13.238;2023-07-20T17:15:31;1.40;;;0.90;;
6928;SDS011;3504;52.616;13.238;2023-07-20T17:20:32;2.85;;;0.77;;
6928;SDS011;3504;52.616;13.238;2023-07-20T17:25:35;4.57;;;0.75;;
6928;SDS011;3504;52.616;13.238;2023-07-20T17:30:36;1.58;;;0.70;;
6928;SDS011;3504;52.616;13.238;2023-07-20T17:35:37;1.95;;;0.70;;
6928;SDS011;3504;52.616;13.238;2023-07-20T17:40:37;1.67;;;0.68;;
6928;SDS011;3504;52.616;13.238;2023-07-20T17:45:38;2.92;;;0.70;;
6928;SDS011;3504;52.616;13.238;2023-07-20T17:50:41;0.68;;;0.52;;
6928;SDS011;3504;52.616;13.238;2023-07-20T17:55:43;1.42;;;0.80;;
6928;SDS011;3504;52.616;13.238;2023-07-20T18:00:43;2.63;;;0.73;;
6928;SDS011;3504;52.616;13.238;2023-07-20T18:05:44;2.45;;;0.68;;
6928;SDS011;3504;52.616;13.238;2023-07-20T18:10:46;1.83;;;0.77;;
6928;SDS011;3504;52.616;13.238;2023-07-20T18:15:54;2.58;;;1.38;;
6928;SDS011;3504;52.616;13.238;2023-07-20T18:20:55;1.67;;;0.93;;
6928;SDS011;3504;52.616;13.238;2023-07-20T18:25:56;2.10;;;1.08;;
6928;SDS011;3504;52.616;13.238;2023-07-20T18:30:56;1.50;;;0.90;;
6928;SDS011;3504;52.616;13.238;2023-07-20T18:35:57;1.42;;;0.93;;
6928;SDS011;3504;52.616;13.238;2023-07-20T18:40:57;2.17;;;1.00;;
6928;SDS011;3504;52.616;13.238;2023-07-20T18:45:58;0.90;;;0.80;;
6928;SDS011;3504;52.616;13.238;2023-07-20T18:50:58;2.67;;;0.82;;
6928;SDS011;3504;52.616;13.238;2023-07-20T18:55:59;1.52;;;0.90;;
6928;SDS011;3504;52.616;13.238;2023-07-20T19:00:59;2.17;;;1.00;;
6928;SDS011;3504;52.616;13.238;2023-07-20T19:06:00;1.35;;;0.82;;
6928;SDS011;3504;52.616;13.238;2023-07-20T19:11:02;1.60;;;1.00;;
6928;SDS011;3504;52.616;13.238;2023-07-20T19:16:03;2.33;;;0.93;;
6928;SDS011;3504;52.616;13.238;2023-07-20T19:21:04;1.30;;;0.75;;
6928;SDS011;3504;52.616;13.238;2023-07-20T19:26:06;2.05;;;0.95;;
6928;SDS011;3504;52.616;13.238;2023-07-20T19:31:08;1.75;;;0.80;;
6928;SDS011;3504;52.616;13.238;2023-07-20T19:36:09;3.63;;;0.90;;
6928;SDS011;3504;52.616;13.238;2023-07-20T19:41:09;3.85;;;1.27;;
6928;SDS011;3504;52.616;13.238;2023-07-20T19:46:10;1.20;;;0.80;;
6928;SDS011;3504;52.616;13.238;2023-07-20T19:51:10;2.03;;;0.90;;
6928;SDS011;3504;52.616;13.238;2023-07-20T19:56:11;2.17;;;0.85;;
6928;SDS011;3504;52.616;13.238;2023-07-20T20:01:11;1.42;;;1.20;;
6928;SDS011;3504;52.616;13.238;2023-07-20T20:06:12;3.60;;;1.60;;
6928;SDS011;3504;52.616;13.238;2023-07-20T20:11:13;5.00;;;1.50;;
6928;SDS011;3504;52.616;13.238;2023-07-20T20:16:14;1.98;;;1.55;;
6928;SDS011;3504;52.616;13.238;2023-07-20T20:21:14;2.45;;;1.50;;
6928;SDS011;3504;52.616;13.238;2023-07-20T20:26:15;2.83;;;1.60;;
6928;SDS011;3504;52.616;13.238;2023-07-20T20:31:16;2.72;;;1.77;;
6928;SDS011;3504;52.616;13.238;2023-07-20T20:36:16;2.53;;;1.50;;
6928;SDS011;3504;52.616;13.238;2023-07-20T20:41:17;3.40;;;1.50;;
6928;SDS011;3504;52.616;13.238;2023-07-20T20:46:17;2.47;;;1.70;;
6928;SDS011;3504;52.616;13.238;2023-07-20T20:51:20;3.17;;;2.08;;
6928;SDS011;3504;52.616;13.238;2023-07-20T20:56:20;3.53;;;2.30;;
6928;SDS011;3504;52.616;13.238;2023-07-20T21:01:21;2.47;;;1.60;;
6928;SDS011;3504;52.616;13.238;2023-07-20T21:06:21;3.30;;;1.70;;
6928;SDS011;3504;52.616;13.238;2023-07-20T21:11:25;4.85;;;1.70;;
6928;SDS011;3504;52.616;13.238;2023-07-20T21:16:25;4.27;;;1.83;;
6928;SDS011;3504;52.616;13.238;2023-07-20T21:21:26;3.42;;;1.50;;
6928;SDS011;3504;52.616;13.238;2023-07-20T21:26:27;3.60;;;2.00;;
6928;SDS011;3504;52.616;13.238;2023-07-20T21:31:27;3.00;;;1.90;;
6928;SDS011;3504;52.616;13.238;2023-07-20T21:36:28;2.90;;;1.77;;
6928;SDS011;3504;52.616;13.238;2023-07-20T21:41:28;4.50;;;2.17;;
6928;SDS011;3504;52.616;13.238;2023-07-20T21:46:29;3.30;;;2.13;;
6928;SDS011;3504;52.616;13.238;2023-07-20T21:51:30;1.90;;;1.70;;
6928;SDS011;3504;52.616;13.238;2023-07-20T21:56:30;3.60;;;1.83;;
6928;SDS011;3504;52.616;13.238;2023-07-20T22:01:34;5.13;;;1.80;;
6928;SDS011;3504;52.616;13.238;2023-07-20T22:06:35;5.00;;;2.53;;
6928;SDS011;3504;52.616;13.238;2023-07-20T22:11:35;2.97;;;2.50;;
6928;SDS011;3504;52.616;13.238;2023-07-20T22:16:38;2.77;;;2.10;;
6928;SDS011;3504;52.616;13.238;2023-07-20T22:21:38;2.73;;;1.97;;
6928;SDS011;3504;52.616;13.238;2023-07-20T22:26:39;3.50;;;2.10;;
6928;SDS011;3504;52.616;13.238;2023-07-20T22:31:39;2.73;;;1.90;;
6928;SDS011;3504;52.616;13.238;2023-07-20T22:36:40;4.23;;;1.90;;
6928;SDS011;3504;52.616;13.238;2023-07-20T22:41:40;3.27;;;1.90;;
6928;SDS011;3504;52.616;13.238;2023-07-20T22:46:41;3.10;;;2.37;;
6928;SDS011;3504;52.616;13.238;2023-07-20T22:51:42;3.17;;;1.63;;
6928;SDS011;3504;52.616;13.238;2023-07-20T22:56:42;3.83;;;1.80;;
6928;SDS011;3504;52.616;13.238;2023-07-20T23:01:43;4.00;;;1.90;;
6928;SDS011;3504;52.616;13.238;2023-07-20T23:06:43;1.87;;;1.67;;
6928;SDS011;3504;52.616;13.238;2023-07-20T23:11:44;3.43;;;1.87;;
6928;SDS011;3504;52.616;13.238;2023-07-20T23:16:45;3.57;;;1.70;;
6928;SDS011;3504;52.616;13.238;2023-07-20T23:21:46;3.80;;;2.10;;
6928;SDS011;3504;52.616;13.238;2023-07-20T23:26:47;2.43;;;1.93;;
6928;SDS011;3504;52.616;13.238;2023-07-20T23:31:47;2.23;;;1.77;;
6928;SDS011;3504;52.616;13.238;2023-07-20T23:36:47;2.70;;;2.10;;
6928;SDS011;3504;52.616;13.238;2023-07-20T23:41:48;3.27;;;1.80;;
6928;SDS011;3504;52.616;13.238;2023-07-20T23:46:49;2.80;;;1.90;;
6928;SDS011;3504;52.616;13.238;2023-07-20T23:51:49;2.97;;;1.70;;
6928;SDS011;3504;52.616;13.238;2023-07-20T23:56:50;3.47;;;1.87;;
